| Date | Time | Temp. (oF) | Dew Point (oF) | Rel. Hum. (%) | Press. (in.) | Wind Dir. | Wind Speed (mph) | Hourly Rainfall (in.) |
|
|---|---|---|---|---|---|---|---|---|---|
| 1 | 11/13 | 00:00 | 44 | 37 | 78 | 30.30 | ESE | 3 | 0.00 |
| 2 | 11/12 | 23:00 | 44 | 35 | 73 | 30.30 | ESE | 0 | 0.00 |
| 3 | 11/12 | 22:00 | 45 | 35 | 70 | 30.32 | SE | 0 | 0.00 |
| 4 | 11/12 | 21:00 | 46 | 35 | 66 | 30.31 | S | 1 | 0.00 |
| 5 | 11/12 | 20:00 | 46 | 34 | 64 | 30.30 | SE | 4 | 0.00 |
| 6 | 11/12 | 19:00 | 46 | 34 | 64 | 30.33 | SSE | 4 | 0.00 |
| 7 | 11/12 | 18:00 | 46 | 34 | 63 | 30.32 | SSE | 3 | 0.00 |
| 8 | 11/12 | 17:00 | 47 | 33 | 60 | 30.31 | SE | 7 | 0.00 |
| 9 | 11/12 | 16:00 | 50 | 33 | 54 | 30.31 | SSE | 3 | 0.00 |
| 10 | 11/12 | 15:00 | 51 | 33 | 52 | 30.30 | SE | 1 | 0.00 |
| 11 | 11/12 | 14:00 | 50 | 33 | 53 | 30.31 | SSE | 2 | 0.00 |
| 12 | 11/12 | 13:00 | 50 | 34 | 55 | 30.32 | SSW | 7 | 0.00 |
| 13 | 11/12 | 12:00 | 49 | 34 | 58 | 30.35 | NW | 2 | 0.00 |
| 14 | 11/12 | 11:00 | 47 | 35 | 64 | 30.37 | S | 4 | 0.00 |
| 15 | 11/12 | 10:00 | 45 | 36 | 71 | 30.39 | NW | 0 | 0.00 |
| 16 | 11/12 | 09:00 | 42 | 36 | 80 | 30.38 | ESE | 4 | 0.00 |
| 17 | 11/12 | 08:00 | 38 | 35 | 90 | 30.39 | ENE | 1 | 0.00 |
| 18 | 11/12 | 07:00 | 37 | 35 | 93 | 30.37 | SE | 1 | 0.00 |
| 19 | 11/12 | 06:00 | 37 | 34 | 92 | 30.38 | ESE | 0 | 0.00 |
| 20 | 11/12 | 05:00 | 37 | 34 | 89 | 30.38 | NW | 0 | 0.00 |
| 21 | 11/12 | 04:00 | 36 | 33 | 90 | 30.36 | SW | 1 | 0.00 |
| 22 | 11/12 | 03:00 | 36 | 32 | 87 | 30.36 | N | 0 | 0.00 |
| 23 | 11/12 | 02:00 | 36 | 32 | 88 | 30.38 | SW | 0 | 0.00 |
| 24 | 11/12 | 01:00 | 36 | 31 | 85 | 30.36 | SW | 0 | 0.00 |